createdAt,value
2018-09-09T00:00:35.561Z,16.50
2018-09-09T00:03:04.432Z,16.60
2018-09-09T00:05:33.370Z,16.40
2018-09-09T00:08:02.096Z,16.50
2018-09-09T00:10:30.916Z,16.70
2018-09-09T00:12:59.697Z,16.30
2018-09-09T00:15:28.539Z,16.50
2018-09-09T00:17:58.241Z,16.70
2018-09-09T00:20:27.833Z,16.50
2018-09-09T00:22:57.404Z,16.80
2018-09-09T00:25:27.315Z,16.60
2018-09-09T00:27:56.971Z,17.10
2018-09-09T00:30:25.475Z,16.60
2018-09-09T00:32:55.015Z,17.30
2018-09-09T00:35:24.039Z,16.80
2018-09-09T00:37:54.029Z,16.60
2018-09-09T00:40:23.813Z,17.10
2018-09-09T00:42:53.696Z,16.90
2018-09-09T00:45:22.716Z,16.90
2018-09-09T00:47:51.719Z,17.50
2018-09-09T00:51:27.014Z,16.50
2018-09-09T00:53:56.004Z,16.50
2018-09-09T00:56:25.723Z,16.70
2018-09-09T00:58:55.567Z,17.40
2018-09-09T01:01:24.087Z,16.80
2018-09-09T01:03:53.272Z,16.60
2018-09-09T01:06:22.617Z,16.30
2018-09-09T01:08:52.623Z,17.00
2018-09-09T01:11:23.110Z,17.00
2018-09-09T01:13:52.138Z,16.40
2018-09-09T01:16:23.007Z,16.70
2018-09-09T01:18:52.550Z,16.80
2018-09-09T01:21:22.808Z,16.50
2018-09-09T01:23:51.640Z,16.80
2018-09-09T01:26:22.262Z,16.60
2018-09-09T01:28:53.292Z,16.30
2018-09-09T01:31:22.950Z,16.40
2018-09-09T01:33:52.057Z,16.50
2018-09-09T01:36:21.279Z,16.60
2018-09-09T01:38:51.717Z,16.90
2018-09-09T01:41:20.737Z,16.60
2018-09-09T01:43:50.736Z,16.60
2018-09-09T01:46:21.433Z,16.70
2018-09-09T01:48:52.618Z,16.90
2018-09-09T01:51:24.520Z,16.80
2018-09-09T01:53:54.257Z,16.70
2018-09-09T01:56:24.746Z,16.90
2018-09-09T01:58:56.935Z,16.20
2018-09-09T02:01:26.709Z,16.70
2018-09-09T02:03:57.497Z,17.10
2018-09-09T02:06:27.419Z,17.10
2018-09-09T02:08:56.766Z,17.00
2018-09-09T02:11:26.410Z,16.70
2018-09-09T02:13:56.450Z,16.80
2018-09-09T02:16:28.212Z,16.40
2018-09-09T02:18:57.247Z,17.30
2018-09-09T02:21:26.138Z,16.40
2018-09-09T02:23:55.180Z,16.90
2018-09-09T02:26:25.385Z,17.00
2018-09-09T02:28:55.306Z,17.20
2018-09-09T02:34:08.779Z,17.10
2018-09-09T02:36:38.451Z,16.60
2018-09-09T02:39:09.749Z,16.50
2018-09-09T02:41:39.850Z,16.60
2018-09-09T02:44:10.685Z,16.20
2018-09-09T02:46:41.472Z,17.30
2018-09-09T02:49:10.377Z,16.30
2018-09-09T02:51:39.294Z,16.80
2018-09-09T02:54:08.748Z,16.90
2018-09-09T02:56:38.056Z,16.90
2018-09-09T02:59:08.369Z,16.80
2018-09-09T03:01:38.687Z,16.80
2018-09-09T03:04:10.083Z,17.00
2018-09-09T03:06:39.448Z,17.00
2018-09-09T03:09:09.225Z,16.60
2018-09-09T03:11:38.844Z,17.10
2018-09-09T03:14:07.860Z,17.00
2018-09-09T03:16:38.212Z,16.70
2018-09-09T03:19:10.095Z,16.60
2018-09-09T03:21:38.848Z,16.30
2018-09-09T03:24:07.811Z,16.90
2018-09-09T03:26:39.768Z,16.90
2018-09-09T03:29:09.243Z,16.90
2018-09-09T03:31:39.918Z,17.00
2018-09-09T03:34:09.407Z,16.70
2018-09-09T03:36:38.711Z,16.70
2018-09-09T03:39:09.996Z,16.70
2018-09-09T03:41:39.005Z,16.60
2018-09-09T03:44:07.773Z,17.00
2018-09-09T03:46:36.281Z,16.80
2018-09-09T03:49:05.688Z,16.10
2018-09-09T03:51:35.358Z,17.00
2018-09-09T03:54:04.280Z,16.30
2018-09-09T03:56:32.996Z,17.10
2018-09-09T03:59:02.471Z,16.60
2018-09-09T04:01:31.911Z,16.60
2018-09-09T04:04:00.533Z,16.70
2018-09-09T04:06:30.235Z,16.60
2018-09-09T04:08:58.727Z,16.80
2018-09-09T04:11:27.231Z,16.90
2018-09-09T04:13:55.830Z,16.80
2018-09-09T04:16:25.092Z,16.90
2018-09-09T04:18:56.312Z,16.60
2018-09-09T04:21:25.028Z,17.00
2018-09-09T04:23:57.439Z,17.20
2018-09-09T04:26:26.614Z,16.70
2018-09-09T04:28:55.946Z,16.90
2018-09-09T04:31:24.747Z,16.90
2018-09-09T04:33:54.504Z,17.00
2018-09-09T04:36:23.086Z,17.60
2018-09-09T04:38:53.656Z,16.70
2018-09-09T04:41:22.602Z,16.30
2018-09-09T04:43:52.203Z,16.70
2018-09-09T04:46:20.815Z,16.70
2018-09-09T04:48:50.379Z,17.00
2018-09-09T04:51:21.204Z,16.80
2018-09-09T04:53:52.070Z,17.40
2018-09-09T04:56:21.022Z,16.40
2018-09-09T04:58:49.517Z,17.20
2018-09-09T05:01:18.146Z,17.20
2018-09-09T05:03:47.367Z,17.20
2018-09-09T05:06:16.074Z,16.20
2018-09-09T05:08:45.977Z,16.90
2018-09-09T05:11:14.626Z,16.80
2018-09-09T05:13:44.182Z,16.70
2018-09-09T05:16:14.968Z,16.20
2018-09-09T05:18:45.774Z,16.50
2018-09-09T05:21:14.792Z,17.00
2018-09-09T05:23:44.010Z,16.70
2018-09-09T05:26:12.600Z,16.60
2018-09-09T05:28:41.357Z,16.30
2018-09-09T05:31:10.983Z,16.80
2018-09-09T05:33:39.787Z,16.60
2018-09-09T05:36:15.540Z,16.50
2018-09-09T05:38:51.988Z,16.90
2018-09-09T05:41:21.571Z,16.90
2018-09-09T05:43:53.331Z,16.80
2018-09-09T05:46:30.448Z,16.90
2018-09-09T05:51:49.134Z,17.00
2018-09-09T05:54:26.423Z,17.20
2018-09-09T05:56:58.298Z,16.70
2018-09-09T05:59:34.921Z,16.70
2018-09-09T06:02:11.784Z,16.90
2018-09-09T06:04:42.845Z,16.80
2018-09-09T06:09:59.856Z,17.30
2018-09-09T06:12:29.352Z,16.90
2018-09-09T06:14:59.823Z,17.30
2018-09-09T06:17:32.593Z,17.80
2018-09-09T06:20:17.589Z,17.70
2018-09-09T06:22:49.904Z,17.30
2018-09-09T06:25:18.551Z,17.60
2018-09-09T06:27:47.420Z,17.40
2018-09-09T06:30:18.223Z,17.80
2018-09-09T06:32:46.974Z,17.90
2018-09-09T06:35:16.461Z,17.50
2018-09-09T06:37:49.093Z,18.20
2018-09-09T06:40:18.785Z,18.10
2018-09-09T06:42:49.454Z,17.60
2018-09-09T06:45:19.119Z,18.40
2018-09-09T06:47:50.659Z,18.10
2018-09-09T06:50:21.931Z,18.10
2018-09-09T06:52:51.807Z,18.70
2018-09-09T06:55:24.339Z,18.60
2018-09-09T06:57:53.239Z,18.60
2018-09-09T07:00:23.118Z,18.10
2018-09-09T07:02:54.797Z,18.80
2018-09-09T07:05:25.522Z,18.90
2018-09-09T07:07:55.483Z,18.70
2018-09-09T07:10:25.860Z,18.60
2018-09-09T07:12:54.708Z,19.30
2018-09-09T07:15:27.708Z,18.90
2018-09-09T07:17:56.213Z,19.60
2018-09-09T07:20:24.893Z,19.70
2018-09-09T07:22:55.183Z,18.90
2018-09-09T07:25:24.693Z,19.40
2018-09-09T07:27:57.564Z,19.90
2018-09-09T07:30:26.385Z,19.90
2018-09-09T07:32:55.976Z,19.80
2018-09-09T07:35:26.270Z,19.20
2018-09-09T07:37:56.520Z,19.50
2018-09-09T07:40:26.627Z,19.50
2018-09-09T07:42:58.182Z,20.10
2018-09-09T07:45:28.090Z,19.40
2018-09-09T07:47:58.664Z,19.80
2018-09-09T07:50:27.964Z,19.70
2018-09-09T07:52:57.716Z,19.50
2018-09-09T07:55:27.700Z,19.70
2018-09-09T07:57:56.889Z,20.30
2018-09-09T08:00:25.611Z,20.00
2018-09-09T08:02:54.368Z,20.30
2018-09-09T08:05:24.477Z,20.30
2018-09-09T08:07:53.978Z,20.80
2018-09-09T08:10:22.752Z,20.40
2018-09-09T08:12:51.923Z,20.30
2018-09-09T08:15:20.578Z,20.70
2018-09-09T08:17:49.287Z,20.50
2018-09-09T08:20:18.092Z,20.70
2018-09-09T08:22:46.972Z,20.60
2018-09-09T08:25:15.790Z,21.30
2018-09-09T08:27:46.716Z,20.80
2018-09-09T08:30:17.498Z,20.80
2018-09-09T08:32:48.402Z,21.60
2018-09-09T08:35:17.305Z,22.50
2018-09-09T08:37:46.913Z,23.00
2018-09-09T08:40:17.484Z,23.20
2018-09-09T08:42:46.591Z,23.10
2018-09-09T08:45:15.762Z,24.10
2018-09-09T08:47:44.219Z,24.20
2018-09-09T08:50:12.729Z,24.10
2018-09-09T08:52:41.183Z,24.70
2018-09-09T08:55:09.766Z,24.10
2018-09-09T08:57:38.307Z,23.40
2018-09-09T09:00:06.882Z,23.80
2018-09-09T09:02:35.813Z,22.50
2018-09-09T09:05:04.540Z,23.50
2018-09-09T09:07:34.956Z,23.00
2018-09-09T09:10:03.671Z,22.60
2018-09-09T09:12:32.183Z,23.40
2018-09-09T09:15:00.887Z,23.50
2018-09-09T09:17:29.526Z,22.80
2018-09-09T09:19:58.485Z,23.20
2018-09-09T09:22:27.196Z,22.30
2018-09-09T09:24:55.994Z,23.40
2018-09-09T09:27:24.636Z,23.40
2018-09-09T09:29:56.358Z,22.90
2018-09-09T09:32:25.719Z,22.90
2018-09-09T09:34:55.261Z,23.20
2018-09-09T09:37:24.902Z,23.50
2018-09-09T09:39:54.455Z,24.00
2018-09-09T09:42:23.903Z,23.70
2018-09-09T09:44:53.002Z,24.00
2018-09-09T09:47:21.685Z,24.80
2018-09-09T09:49:50.386Z,24.90
2018-09-09T09:52:19.938Z,24.80
2018-09-09T09:54:48.761Z,24.80
2018-09-09T09:57:18.155Z,24.60
2018-09-09T09:59:47.112Z,24.60
2018-09-09T10:02:15.605Z,25.20
2018-09-09T10:04:44.384Z,24.90
2018-09-09T10:07:13.702Z,25.20
2018-09-09T10:09:43.523Z,24.90
2018-09-09T10:12:13.500Z,24.80
2018-09-09T10:14:42.993Z,25.10
2018-09-09T10:17:12.492Z,24.70
2018-09-09T10:19:41.508Z,24.40
2018-09-09T10:22:10.378Z,24.60
2018-09-09T10:24:39.313Z,25.40
2018-09-09T10:27:09.193Z,25.10
2018-09-09T10:29:38.768Z,25.30
2018-09-09T10:32:08.023Z,25.80
2018-09-09T10:34:36.704Z,25.50
2018-09-09T10:37:07.264Z,25.60
2018-09-09T10:39:36.922Z,25.70
2018-09-09T10:42:07.287Z,24.80
2018-09-09T10:44:36.142Z,24.90
2018-09-09T10:47:05.765Z,25.40
2018-09-09T10:49:35.090Z,25.50
2018-09-09T10:52:04.345Z,25.70
2018-09-09T10:54:36.116Z,25.90
2018-09-09T10:57:06.162Z,25.90
2018-09-09T10:59:36.306Z,26.50
2018-09-09T11:02:05.384Z,26.00
2018-09-09T11:04:34.696Z,25.70
2018-09-09T11:07:03.758Z,26.10
2018-09-09T11:09:32.308Z,26.20
2018-09-09T11:12:08.296Z,26.10
2018-09-09T11:14:36.877Z,25.80
2018-09-09T11:17:05.428Z,25.90
2018-09-09T11:19:33.989Z,25.70
2018-09-09T11:22:02.835Z,25.10
2018-09-09T11:24:31.388Z,24.90
2018-09-09T11:27:00.331Z,25.10
2018-09-09T11:29:29.315Z,24.50
2018-09-09T11:31:57.968Z,25.40
2018-09-09T11:34:26.639Z,24.70
2018-09-09T11:36:55.277Z,25.00
2018-09-09T11:39:23.944Z,25.00
2018-09-09T11:41:52.675Z,24.80
2018-09-09T11:44:21.388Z,25.00
2018-09-09T11:46:50.014Z,25.40
2018-09-09T11:49:20.275Z,25.50
2018-09-09T11:51:55.691Z,26.20
2018-09-09T11:54:25.016Z,26.10
2018-09-09T11:56:54.802Z,26.90
2018-09-09T11:59:23.834Z,26.50
2018-09-09T12:01:54.269Z,27.00
2018-09-09T12:04:23.388Z,27.00
2018-09-09T12:06:52.069Z,27.20
2018-09-09T12:09:20.773Z,27.20
2018-09-09T12:11:49.332Z,26.90
2018-09-09T12:14:17.872Z,27.10
2018-09-09T12:16:46.440Z,27.20
2018-09-09T12:19:15.004Z,27.20
2018-09-09T12:21:43.603Z,27.00
2018-09-09T12:24:12.454Z,27.40
2018-09-09T12:26:41.072Z,27.30
2018-09-09T12:29:09.752Z,27.80
2018-09-09T12:31:38.365Z,28.00
2018-09-09T12:34:07.116Z,28.50
2018-09-09T12:36:37.514Z,28.20
2018-09-09T12:39:09.028Z,28.50
2018-09-09T12:41:39.347Z,28.00
2018-09-09T12:45:17.464Z,27.60
2018-09-09T12:48:55.189Z,27.90
2018-09-09T12:51:25.537Z,27.90
2018-09-09T12:56:31.063Z,27.80
2018-09-09T12:59:00.698Z,26.80
2018-09-09T13:01:29.633Z,26.80
2018-09-09T13:03:58.587Z,27.40
2018-09-09T13:06:27.863Z,27.30
2018-09-09T13:08:56.631Z,27.40
2018-09-09T13:11:27.210Z,27.20
2018-09-09T13:13:56.130Z,26.80
2018-09-09T13:16:26.056Z,26.20
2018-09-09T13:18:54.862Z,26.60
2018-09-09T13:21:23.485Z,26.80
2018-09-09T13:23:53.204Z,26.70
2018-09-09T13:26:23.914Z,26.70
2018-09-09T13:28:54.578Z,26.80
2018-09-09T13:31:26.214Z,27.00
2018-09-09T13:33:58.231Z,27.70
2018-09-09T13:36:30.264Z,27.20
2018-09-09T13:39:01.733Z,27.90
2018-09-09T13:41:30.562Z,28.00
2018-09-09T13:44:00.806Z,28.00
2018-09-09T13:46:32.843Z,27.90
2018-09-09T13:49:02.083Z,28.60
2018-09-09T13:51:35.776Z,28.20
2018-09-09T13:54:08.195Z,29.20
2018-09-09T13:56:40.696Z,29.00
2018-09-09T13:59:11.541Z,27.90
2018-09-09T14:01:42.204Z,28.30
2018-09-09T14:04:13.795Z,29.10
2018-09-09T14:06:46.063Z,28.80
2018-09-09T14:09:17.671Z,28.90
2018-09-09T14:11:47.834Z,29.70
2018-09-09T14:14:19.745Z,29.70
2018-09-09T14:16:50.890Z,29.30
2018-09-09T14:22:06.677Z,29.90
2018-09-09T14:24:35.888Z,29.10
2018-09-09T14:27:05.912Z,29.10
2018-09-09T14:29:35.706Z,28.90
2018-09-09T14:32:09.574Z,28.90
2018-09-09T14:34:38.398Z,28.80
2018-09-09T14:37:07.748Z,28.30
2018-09-09T14:39:36.423Z,28.80
2018-09-09T14:42:05.932Z,28.90
2018-09-09T14:44:34.903Z,28.60
2018-09-09T14:47:03.774Z,28.80
2018-09-09T14:49:32.760Z,29.20
2018-09-09T14:52:02.295Z,29.00
2018-09-09T14:54:31.063Z,29.20
2018-09-09T14:57:02.530Z,28.50
2018-09-09T14:59:33.442Z,29.00
2018-09-09T15:02:02.786Z,28.20
2018-09-09T15:04:34.087Z,28.90
2018-09-09T15:07:03.547Z,28.40
2018-09-09T15:09:33.543Z,28.20
2018-09-09T15:12:02.482Z,28.60
2018-09-09T15:14:31.812Z,28.60
2018-09-09T15:17:00.490Z,28.70
2018-09-09T15:19:29.313Z,29.00
2018-09-09T15:21:59.635Z,28.40
2018-09-09T15:24:28.267Z,28.90
2018-09-09T15:26:57.541Z,28.80
2018-09-09T15:29:26.095Z,28.60
2018-09-09T15:31:54.749Z,28.70
2018-09-09T15:34:23.235Z,28.70
2018-09-09T15:36:51.816Z,28.40
2018-09-09T15:39:20.846Z,28.40
2018-09-09T15:41:50.848Z,28.50
2018-09-09T15:44:20.424Z,28.70
2018-09-09T15:46:48.981Z,28.40
2018-09-09T15:49:17.818Z,28.30
2018-09-09T15:51:48.307Z,28.50
2018-09-09T15:54:17.962Z,27.90
2018-09-09T15:56:48.187Z,28.20
2018-09-09T15:59:16.807Z,28.10
2018-09-09T16:01:48.789Z,28.10
2018-09-09T16:04:17.413Z,28.10
2018-09-09T16:06:46.038Z,28.00
2018-09-09T16:09:15.064Z,28.10
2018-09-09T16:11:44.175Z,27.80
2018-09-09T16:14:12.824Z,28.00
2018-09-09T16:16:41.834Z,28.70
2018-09-09T16:19:13.945Z,28.40
2018-09-09T16:21:43.448Z,28.30
2018-09-09T16:24:13.879Z,28.10
2018-09-09T16:26:45.713Z,28.00
2018-09-09T16:29:15.385Z,27.60
2018-09-09T16:31:45.755Z,27.90
2018-09-09T16:34:15.685Z,28.30
2018-09-09T16:36:49.731Z,28.00
2018-09-09T16:39:19.789Z,27.90
2018-09-09T16:41:50.471Z,27.80
2018-09-09T16:44:20.120Z,28.10
2018-09-09T16:49:28.807Z,28.20
2018-09-09T16:52:00.247Z,27.10
2018-09-09T16:54:33.675Z,27.60
2018-09-09T16:57:08.834Z,27.60
2018-09-09T16:59:39.785Z,27.90
2018-09-09T17:02:12.918Z,27.60
2018-09-09T17:04:49.735Z,26.80
2018-09-09T17:07:21.376Z,27.00
2018-09-09T17:09:52.826Z,26.10
2018-09-09T17:12:24.596Z,25.70
2018-09-09T17:14:57.194Z,25.60
2018-09-09T17:17:28.816Z,25.20
2018-09-09T17:20:06.038Z,25.80
2018-09-09T17:22:37.712Z,25.10
2018-09-09T17:25:10.162Z,24.60
2018-09-09T17:27:44.144Z,24.70
2018-09-09T17:30:12.807Z,25.50
2018-09-09T17:32:41.536Z,25.00
2018-09-09T17:35:10.414Z,25.10
2018-09-09T17:37:39.492Z,24.90
2018-09-09T17:40:08.163Z,25.20
2018-09-09T17:42:37.267Z,24.90
2018-09-09T17:45:07.296Z,24.30
2018-09-09T17:47:36.161Z,24.50
2018-09-09T17:50:05.651Z,24.00
2018-09-09T17:52:34.685Z,24.00
2018-09-09T17:55:04.815Z,23.70
2018-09-09T17:57:33.474Z,24.10
2018-09-09T18:00:02.229Z,23.70
2018-09-09T18:02:31.439Z,23.50
2018-09-09T18:05:00.442Z,23.80
2018-09-09T18:07:29.135Z,23.70
2018-09-09T18:09:58.389Z,22.90
2018-09-09T18:12:27.050Z,23.00
2018-09-09T18:14:55.739Z,23.10
2018-09-09T18:17:24.625Z,22.60
2018-09-09T18:19:53.359Z,22.70
2018-09-09T18:22:22.098Z,22.40
2018-09-09T18:24:50.749Z,22.50
2018-09-09T18:27:19.344Z,22.50
2018-09-09T18:29:48.335Z,22.40
2018-09-09T18:32:17.653Z,22.30
2018-09-09T18:34:46.069Z,22.10
2018-09-09T18:37:14.666Z,22.30
2018-09-09T18:39:43.556Z,22.10
2018-09-09T18:42:12.396Z,21.40
2018-09-09T18:44:41.095Z,21.80
2018-09-09T18:47:09.774Z,21.90
2018-09-09T18:49:38.451Z,21.60
2018-09-09T18:52:07.153Z,21.60
2018-09-09T18:54:36.175Z,21.40
2018-09-09T18:57:04.914Z,21.30
2018-09-09T18:59:34.192Z,20.90
2018-09-09T19:02:03.870Z,21.30
2018-09-09T19:04:32.338Z,22.00
2018-09-09T19:07:00.763Z,22.10
2018-09-09T19:09:31.803Z,21.60
2018-09-09T19:12:00.436Z,21.50
2018-09-09T19:14:28.961Z,21.60
2018-09-09T19:16:57.449Z,21.70
2018-09-09T19:19:26.019Z,21.80
2018-09-09T19:21:55.451Z,21.80
2018-09-09T19:24:24.213Z,21.90
2018-09-09T19:26:52.861Z,21.60
2018-09-09T19:29:21.656Z,21.80
2018-09-09T19:31:57.118Z,21.60
2018-09-09T19:34:26.019Z,21.60
2018-09-09T19:36:54.856Z,22.00
2018-09-09T19:39:24.007Z,21.20
2018-09-09T19:41:52.898Z,21.20
2018-09-09T19:44:21.216Z,21.50
2018-09-09T19:46:49.743Z,21.50
2018-09-09T19:49:18.203Z,21.10
2018-09-09T19:51:46.743Z,21.70
2018-09-09T19:54:15.159Z,21.70
2018-09-09T19:56:44.026Z,22.00
2018-09-09T19:59:13.528Z,21.40
2018-09-09T20:01:41.986Z,22.20
2018-09-09T20:04:10.492Z,21.80
2018-09-09T20:06:39.086Z,22.20
2018-09-09T20:09:08.182Z,22.20
2018-09-09T20:11:37.603Z,22.40
2018-09-09T20:14:06.910Z,22.20
2018-09-09T20:16:35.911Z,22.20
2018-09-09T20:19:07.030Z,22.30
2018-09-09T20:21:35.577Z,22.60
2018-09-09T20:24:04.005Z,22.50
2018-09-09T20:26:32.642Z,21.90
2018-09-09T20:29:03.284Z,22.20
2018-09-09T20:31:33.144Z,21.80
2018-09-09T20:34:03.756Z,22.30
2018-09-09T20:36:36.410Z,22.20
2018-09-09T20:39:09.279Z,22.00
2018-09-09T20:41:38.078Z,22.10
2018-09-09T20:44:07.352Z,21.70
2018-09-09T20:46:36.906Z,21.80
2018-09-09T20:49:06.096Z,22.00
2018-09-09T20:51:34.790Z,21.70
2018-09-09T20:54:03.438Z,22.00
2018-09-09T20:56:32.248Z,21.70
2018-09-09T20:59:01.672Z,21.50
2018-09-09T21:01:30.343Z,21.90
2018-09-09T21:03:59.051Z,21.40
2018-09-09T21:06:28.193Z,21.50
2018-09-09T21:08:57.418Z,21.50
2018-09-09T21:11:26.134Z,21.40
2018-09-09T21:13:55.359Z,20.90
2018-09-09T21:16:24.197Z,21.80
2018-09-09T21:18:54.861Z,21.50
2018-09-09T21:21:24.118Z,21.50
2018-09-09T21:26:28.127Z,21.30
2018-09-09T21:28:57.556Z,20.90
2018-09-09T21:31:26.300Z,20.10
2018-09-09T21:33:55.862Z,20.40
2018-09-09T21:36:24.616Z,20.60
2018-09-09T21:38:54.649Z,20.40
2018-09-09T21:41:23.637Z,20.80
2018-09-09T21:43:52.512Z,21.20
2018-09-09T21:46:21.374Z,20.90
2018-09-09T21:48:50.677Z,20.70
2018-09-09T21:51:20.201Z,20.30
2018-09-09T21:53:48.895Z,20.20
2018-09-09T21:56:18.939Z,20.20
2018-09-09T21:58:47.616Z,20.50
2018-09-09T22:01:23.035Z,20.30
2018-09-09T22:03:56.871Z,19.80
2018-09-09T22:06:26.625Z,20.20
2018-09-09T22:08:56.970Z,19.90
2018-09-09T22:11:26.999Z,20.30
2018-09-09T22:27:06.488Z,20.80
2018-09-09T22:29:35.431Z,20.70
2018-09-09T22:32:05.255Z,20.10
2018-09-09T22:34:34.989Z,20.60
2018-09-09T22:37:11.026Z,20.40
2018-09-09T22:39:41.815Z,20.80
2018-09-09T22:42:10.737Z,20.20
2018-09-09T22:44:40.429Z,20.40
2018-09-09T22:47:10.469Z,20.00
2018-09-09T22:49:39.545Z,19.70
2018-09-09T22:52:08.409Z,20.20
2018-09-09T22:54:38.026Z,19.90
2018-09-09T22:57:06.953Z,20.20
2018-09-09T22:59:35.678Z,20.50
2018-09-09T23:02:05.341Z,20.00
2018-09-09T23:04:34.812Z,19.40
2018-09-09T23:07:04.448Z,19.50
2018-09-09T23:09:35.450Z,20.10
2018-09-09T23:12:07.233Z,20.30
2018-09-09T23:14:36.707Z,19.30
2018-09-09T23:17:06.582Z,19.70
2018-09-09T23:19:39.089Z,20.00
2018-09-09T23:22:09.022Z,19.60
2018-09-09T23:24:38.792Z,19.90
2018-09-09T23:27:07.564Z,20.10
2018-09-09T23:29:36.784Z,20.10
2018-09-09T23:32:05.796Z,20.20
2018-09-09T23:34:34.901Z,19.60
2018-09-09T23:39:44.179Z,19.50
2018-09-09T23:42:13.127Z,19.10
2018-09-09T23:47:13.755Z,19.20
2018-09-09T23:49:42.734Z,18.80
2018-09-09T23:52:11.519Z,19.10
2018-09-09T23:54:40.567Z,18.80
2018-09-09T23:57:10.023Z,18.60
2018-09-09T23:59:39.380Z,19.20
